sensor_id;sensor_type;location;lat;lon;timestamp;temperature;humidity
14154;DHT22;7157;53.144;7.570;2023-01-08T00:06:53;11.40;82.29
14154;DHT22;7157;53.144;7.570;2023-01-08T00:16:57;11.38;82.89
14154;DHT22;7157;53.144;7.570;2023-01-08T00:27:00;11.29;84.25
14154;DHT22;7157;53.144;7.570;2023-01-08T00:37:05;11.49;84.03
14154;DHT22;7157;53.144;7.570;2023-01-08T00:47:07;11.37;84.96
14154;DHT22;7157;53.144;7.570;2023-01-08T00:57:11;11.46;85.00
14154;DHT22;7157;53.144;7.570;2023-01-08T01:07:14;11.37;85.62
14154;DHT22;7157;53.144;7.570;2023-01-08T01:17:18;11.36;85.78
14154;DHT22;7157;53.144;7.570;2023-01-08T01:27:21;11.29;86.30
14154;DHT22;7157;53.144;7.570;2023-01-08T01:37:25;11.22;86.90
14154;DHT22;7157;53.144;7.570;2023-01-08T01:47:32;11.19;87.08
14154;DHT22;7157;53.144;7.570;2023-01-08T01:57:38;11.33;86.74
14154;DHT22;7157;53.144;7.570;2023-01-08T02:07:47;11.47;86.45
14154;DHT22;7157;53.144;7.570;2023-01-08T02:17:55;10.82;90.28
14154;DHT22;7157;53.144;7.570;2023-01-08T02:28:04;10.33;92.85
14154;DHT22;7157;53.144;7.570;2023-01-08T02:38:08;9.20;94.41
14154;DHT22;7157;53.144;7.570;2023-01-08T02:48:20;9.14;94.21
14154;DHT22;7157;53.144;7.570;2023-01-08T02:58:29;8.93;96.71
14154;DHT22;7157;53.144;7.570;2023-01-08T03:08:37;8.94;98.39
14154;DHT22;7157;53.144;7.570;2023-01-08T03:18:45;9.01;99.48
14154;DHT22;7157;53.144;7.570;2023-01-08T03:28:54;9.06;100.08
14154;DHT22;7157;53.144;7.570;2023-01-08T03:38:59;9.15;99.67
14154;DHT22;7157;53.144;7.570;2023-01-08T03:49:05;9.21;99.55
14154;DHT22;7157;53.144;7.570;2023-01-08T03:59:09;9.26;99.64
14154;DHT22;7157;53.144;7.570;2023-01-08T04:09:13;9.27;99.93
14154;DHT22;7157;53.144;7.570;2023-01-08T04:19:16;9.35;100.24
14154;DHT22;7157;53.144;7.570;2023-01-08T04:29:20;9.50;100.45
14154;DHT22;7157;53.144;7.570;2023-01-08T04:39:22;9.67;100.20
14154;DHT22;7157;53.144;7.570;2023-01-08T04:49:26;9.76;100.16
14154;DHT22;7157;53.144;7.570;2023-01-08T04:59:31;9.86;99.93
14154;DHT22;7157;53.144;7.570;2023-01-08T05:09:35;9.84;100.12
14154;DHT22;7157;53.144;7.570;2023-01-08T05:19:38;9.97;100.31
14154;DHT22;7157;53.144;7.570;2023-01-08T05:29:42;10.01;100.32
14154;DHT22;7157;53.144;7.570;2023-01-08T05:39:45;9.97;100.62
14154;DHT22;7157;53.144;7.570;2023-01-08T05:49:49;9.94;100.33
14154;DHT22;7157;53.144;7.570;2023-01-08T05:59:51;10.25;98.16
14154;DHT22;7157;53.144;7.570;2023-01-08T06:09:55;9.92;99.76
14154;DHT22;7157;53.144;7.570;2023-01-08T06:19:58;9.95;100.29
14154;DHT22;7157;53.144;7.570;2023-01-08T06:30:03;9.93;99.10
14154;DHT22;7157;53.144;7.570;2023-01-08T06:40:07;9.95;99.03
14154;DHT22;7157;53.144;7.570;2023-01-08T06:50:11;9.79;97.97
14154;DHT22;7157;53.144;7.570;2023-01-08T07:00:14;9.76;97.85
14154;DHT22;7157;53.144;7.570;2023-01-08T07:10:18;9.78;98.04
14154;DHT22;7157;53.144;7.570;2023-01-08T07:20:21;9.61;98.07
14154;DHT22;7157;53.144;7.570;2023-01-08T07:30:25;9.59;97.74
14154;DHT22;7157;53.144;7.570;2023-01-08T07:40:31;9.57;97.78
14154;DHT22;7157;53.144;7.570;2023-01-08T07:50:36;9.59;97.26
14154;DHT22;7157;53.144;7.570;2023-01-08T08:00:41;9.39;98.23
14154;DHT22;7157;53.144;7.570;2023-01-08T08:10:45;9.54;97.00
14154;DHT22;7157;53.144;7.570;2023-01-08T08:20:48;9.30;96.70
14154;DHT22;7157;53.144;7.570;2023-01-08T08:30:54;9.17;95.99
14154;DHT22;7157;53.144;7.570;2023-01-08T08:40:56;9.23;95.23
14154;DHT22;7157;53.144;7.570;2023-01-08T08:51:00;9.33;95.75
14154;DHT22;7157;53.144;7.570;2023-01-08T09:01:03;9.59;94.20
14154;DHT22;7157;53.144;7.570;2023-01-08T09:11:08;9.77;92.03
14154;DHT22;7157;53.144;7.570;2023-01-08T09:21:10;9.90;90.73
14154;DHT22;7157;53.144;7.570;2023-01-08T09:31:14;9.92;90.64
14154;DHT22;7157;53.144;7.570;2023-01-08T09:41:19;10.05;88.49
14154;DHT22;7157;53.144;7.570;2023-01-08T09:51:31;10.11;87.52
14154;DHT22;7157;53.144;7.570;2023-01-08T10:01:37;10.10;87.54
14154;DHT22;7157;53.144;7.570;2023-01-08T10:11:45;10.28;88.40
14154;DHT22;7157;53.144;7.570;2023-01-08T10:21:49;10.36;86.00
14154;DHT22;7157;53.144;7.570;2023-01-08T10:31:54;10.45;86.25
14154;DHT22;7157;53.144;7.570;2023-01-08T10:42:04;10.80;85.02
14154;DHT22;7157;53.144;7.570;2023-01-08T10:52:23;11.09;83.09
14154;DHT22;7157;53.144;7.570;2023-01-08T11:02:32;10.89;80.45
14154;DHT22;7157;53.144;7.570;2023-01-08T11:12:40;10.82;77.85
14154;DHT22;7157;53.144;7.570;2023-01-08T11:22:43;11.25;78.88
14154;DHT22;7157;53.144;7.570;2023-01-08T11:32:51;11.38;75.50
14154;DHT22;7157;53.144;7.570;2023-01-08T11:43:00;11.36;74.04
14154;DHT22;7157;53.144;7.570;2023-01-08T11:53:16;11.61;74.46
14154;DHT22;7157;53.144;7.570;2023-01-08T12:03:29;11.78;73.17
14154;DHT22;7157;53.144;7.570;2023-01-08T12:13:49;12.04;72.27
14154;DHT22;7157;53.144;7.570;2023-01-08T12:24:10;12.15;71.39
14154;DHT22;7157;53.144;7.570;2023-01-08T12:34:32;13.63;72.01
14154;DHT22;7157;53.144;7.570;2023-01-08T12:44:37;20.35;44.98
14154;DHT22;7157;53.144;7.570;2023-01-08T12:54:48;15.62;55.91
14154;DHT22;7157;53.144;7.570;2023-01-08T13:04:52;14.17;62.73
14154;DHT22;7157;53.144;7.570;2023-01-08T13:14:56;15.67;58.94
14154;DHT22;7157;53.144;7.570;2023-01-08T13:25:28;13.94;63.27
14154;DHT22;7157;53.144;7.570;2023-01-08T13:35:33;12.94;67.23
14154;DHT22;7157;53.144;7.570;2023-01-08T13:45:35;12.70;68.94
14154;DHT22;7157;53.144;7.570;2023-01-08T13:55:42;12.97;69.46
14154;DHT22;7157;53.144;7.570;2023-01-08T14:05:46;12.30;71.90
14154;DHT22;7157;53.144;7.570;2023-01-08T14:15:51;12.61;71.42
14154;DHT22;7157;53.144;7.570;2023-01-08T14:25:54;12.87;70.74
14154;DHT22;7157;53.144;7.570;2023-01-08T14:35:58;12.56;71.79
14154;DHT22;7157;53.144;7.570;2023-01-08T14:46:01;11.69;74.99
14154;DHT22;7157;53.144;7.570;2023-01-08T14:56:06;11.55;75.28
14154;DHT22;7157;53.144;7.570;2023-01-08T15:06:23;10.92;77.59
14154;DHT22;7157;53.144;7.570;2023-01-08T15:16:30;10.51;79.33
14154;DHT22;7157;53.144;7.570;2023-01-08T15:26:33;10.18;81.23
14154;DHT22;7157;53.144;7.570;2023-01-08T15:36:37;10.19;81.79
14154;DHT22;7157;53.144;7.570;2023-01-08T15:46:40;10.31;81.62
14154;DHT22;7157;53.144;7.570;2023-01-08T15:56:44;10.33;81.73
14154;DHT22;7157;53.144;7.570;2023-01-08T16:06:49;10.09;82.75
14154;DHT22;7157;53.144;7.570;2023-01-08T16:16:53;10.03;83.23
14154;DHT22;7157;53.144;7.570;2023-01-08T16:26:56;9.71;84.81
14154;DHT22;7157;53.144;7.570;2023-01-08T16:37:00;9.49;85.56
14154;DHT22;7157;53.144;7.570;2023-01-08T16:47:03;9.24;87.02
14154;DHT22;7157;53.144;7.570;2023-01-08T16:57:08;9.03;87.96
14154;DHT22;7157;53.144;7.570;2023-01-08T17:07:11;8.88;88.38
14154;DHT22;7157;53.144;7.570;2023-01-08T17:17:16;8.78;88.24
14154;DHT22;7157;53.144;7.570;2023-01-08T17:27:18;8.63;88.28
14154;DHT22;7157;53.144;7.570;2023-01-08T17:37:22;8.52;88.09
14154;DHT22;7157;53.144;7.570;2023-01-08T17:47:26;8.48;87.81
14154;DHT22;7157;53.144;7.570;2023-01-08T17:57:30;8.27;88.15
14154;DHT22;7157;53.144;7.570;2023-01-08T18:07:33;8.16;88.67
14154;DHT22;7157;53.144;7.570;2023-01-08T18:17:37;8.17;88.74
14154;DHT22;7157;53.144;7.570;2023-01-08T18:27:40;8.09;89.14
14154;DHT22;7157;53.144;7.570;2023-01-08T18:37:44;7.96;89.40
14154;DHT22;7157;53.144;7.570;2023-01-08T18:47:47;7.58;90.16
14154;DHT22;7157;53.144;7.570;2023-01-08T18:57:51;7.39;90.31
14154;DHT22;7157;53.144;7.570;2023-01-08T19:07:54;7.26;90.95
14154;DHT22;7157;53.144;7.570;2023-01-08T19:17:58;7.12;91.75
14154;DHT22;7157;53.144;7.570;2023-01-08T19:28:01;7.05;91.46
14154;DHT22;7157;53.144;7.570;2023-01-08T19:38:06;7.07;92.05
14154;DHT22;7157;53.144;7.570;2023-01-08T19:48:09;7.12;92.13
14154;DHT22;7157;53.144;7.570;2023-01-08T19:58:13;7.32;90.97
14154;DHT22;7157;53.144;7.570;2023-01-08T20:08:17;7.17;91.88
14154;DHT22;7157;53.144;7.570;2023-01-08T20:18:21;7.16;91.86
14154;DHT22;7157;53.144;7.570;2023-01-08T20:28:24;7.22;91.31
14154;DHT22;7157;53.144;7.570;2023-01-08T20:38:28;7.11;91.43
14154;DHT22;7157;53.144;7.570;2023-01-08T20:48:31;7.11;91.25
14154;DHT22;7157;53.144;7.570;2023-01-08T20:58:45;6.91;91.98
14154;DHT22;7157;53.144;7.570;2023-01-08T21:08:50;6.86;92.26
14154;DHT22;7157;53.144;7.570;2023-01-08T21:18:56;6.90;92.10
14154;DHT22;7157;53.144;7.570;2023-01-08T21:29:00;6.80;92.35
14154;DHT22;7157;53.144;7.570;2023-01-08T21:39:05;6.78;92.86
14154;DHT22;7157;53.144;7.570;2023-01-08T21:49:07;7.05;91.79
14154;DHT22;7157;53.144;7.570;2023-01-08T21:59:13;7.09;91.85
14154;DHT22;7157;53.144;7.570;2023-01-08T22:09:15;7.14;91.76
14154;DHT22;7157;53.144;7.570;2023-01-08T22:19:19;7.33;90.92
14154;DHT22;7157;53.144;7.570;2023-01-08T22:29:22;7.12;92.30
14154;DHT22;7157;53.144;7.570;2023-01-08T22:39:26;7.09;92.21
14154;DHT22;7157;53.144;7.570;2023-01-08T22:49:29;6.95;92.63
14154;DHT22;7157;53.144;7.570;2023-01-08T22:59:35;6.96;92.64
14154;DHT22;7157;53.144;7.570;2023-01-08T23:09:38;7.10;91.85
14154;DHT22;7157;53.144;7.570;2023-01-08T23:19:42;7.28;91.29
14154;DHT22;7157;53.144;7.570;2023-01-08T23:29:45;7.08;92.21
14154;DHT22;7157;53.144;7.570;2023-01-08T23:39:49;7.10;92.69
14154;DHT22;7157;53.144;7.570;2023-01-08T23:49:51;7.40;91.65
14154;DHT22;7157;53.144;7.570;2023-01-08T23:59:55;7.56;91.05
